createdAt,value
2022-10-02T00:02:50.531Z,100627.03
2022-10-02T00:05:41.373Z,100633.88
2022-10-02T00:08:35.539Z,100633.97
2022-10-02T00:11:25.157Z,100630.44
2022-10-02T00:14:15.298Z,100632.09
2022-10-02T00:17:01.485Z,100639.91
2022-10-02T00:19:46.734Z,100641.72
2022-10-02T00:22:50.934Z,100645.13
2022-10-02T00:25:48.180Z,100639.16
2022-10-02T00:28:50.190Z,100645.28
2022-10-02T00:31:59.396Z,100642.78
2022-10-02T00:34:59.903Z,100647.91
2022-10-02T00:38:14.271Z,100644.50
2022-10-02T00:41:11.470Z,100651.53
2022-10-02T00:44:33.109Z,100651.66
2022-10-02T00:47:33.640Z,100649.94
2022-10-02T00:50:37.211Z,100643.00
2022-10-02T00:53:43.666Z,100650.97
2022-10-02T00:56:47.396Z,100653.59
2022-10-02T00:59:38.735Z,100644.97
2022-10-02T01:02:23.884Z,100651.84
2022-10-02T01:05:09.949Z,100650.13
2022-10-02T01:07:55.934Z,100647.59
2022-10-02T01:10:41.811Z,100640.66
2022-10-02T01:13:26.989Z,100644.13
2022-10-02T01:16:13.624Z,100644.16
2022-10-02T01:18:58.756Z,100643.38
2022-10-02T01:21:49.142Z,100646.88
2022-10-02T01:24:39.813Z,100653.69
2022-10-02T01:27:26.124Z,100653.72
2022-10-02T01:30:15.457Z,100660.84
2022-10-02T01:33:03.341Z,100656.41
2022-10-02T01:35:48.903Z,100661.59
2022-10-02T01:38:35.072Z,100664.22
2022-10-02T01:41:20.020Z,100661.66
2022-10-02T01:44:05.322Z,100659.06
2022-10-02T01:47:10.495Z,100669.47
2022-10-02T01:50:34.247Z,100673.03
2022-10-02T01:53:44.148Z,100675.63
2022-10-02T01:56:35.414Z,100675.66
2022-10-02T01:59:47.635Z,100680.88
2022-10-02T02:02:48.229Z,100675.66
2022-10-02T02:06:01.364Z,100675.72
2022-10-02T02:08:54.478Z,100677.41
2022-10-02T02:11:51.374Z,100672.25
2022-10-02T02:14:45.055Z,100676.66
2022-10-02T02:17:40.370Z,100675.81
2022-10-02T02:20:32.585Z,100671.63
2022-10-02T02:23:22.536Z,100674.22
2022-10-02T02:26:11.938Z,100664.00
2022-10-02T02:29:01.780Z,100650.22
2022-10-02T02:31:52.080Z,100658.88
2022-10-02T02:34:45.673Z,100651.09
2022-10-02T02:37:35.948Z,100656.25
2022-10-02T02:40:28.113Z,100654.53
2022-10-02T02:43:20.885Z,100655.41
2022-10-02T02:46:23.669Z,100667.50
2022-10-02T02:49:11.730Z,100664.09
2022-10-02T02:52:00.645Z,100668.44
2022-10-02T02:54:56.033Z,100668.44
2022-10-02T02:57:49.372Z,100679.59
2022-10-02T03:00:34.866Z,100675.28
2022-10-02T03:03:20.181Z,100675.31
2022-10-02T03:06:17.465Z,100675.34
2022-10-02T03:09:02.659Z,100676.25
2022-10-02T03:12:19.442Z,100689.25
2022-10-02T03:15:43.170Z,100678.88
2022-10-02T03:18:31.383Z,100681.47
2022-10-02T03:21:30.381Z,100687.50
2022-10-02T03:24:45.721Z,100685.78
2022-10-02T03:27:54.037Z,100680.53
2022-10-02T03:30:41.969Z,100681.47
2022-10-02T03:33:28.910Z,100687.47
2022-10-02T03:36:14.612Z,100696.22
2022-10-02T03:42:11.885Z,100693.59
2022-10-02T03:44:56.707Z,100693.63
2022-10-02T03:47:42.069Z,100698.81
2022-10-02T03:50:26.944Z,100696.31
2022-10-02T03:53:18.802Z,100676.47
2022-10-02T03:56:12.420Z,100676.50
2022-10-02T03:59:01.406Z,100676.47
2022-10-02T04:01:50.455Z,100661.75
2022-10-02T04:04:45.325Z,100668.59
2022-10-02T04:07:36.874Z,100664.25
2022-10-02T04:10:28.165Z,100681.47
2022-10-02T04:13:32.057Z,100667.66
2022-10-02T04:16:27.685Z,100652.94
2022-10-02T04:19:23.705Z,100656.28
2022-10-02T04:22:15.535Z,100661.41
2022-10-02T04:25:12.160Z,100661.44
2022-10-02T04:28:02.963Z,100664.00
2022-10-02T04:30:48.152Z,100672.66
2022-10-02T04:33:38.247Z,100686.50
2022-10-02T04:36:59.674Z,100684.81
2022-10-02T04:40:01.356Z,100687.47
2022-10-02T04:43:34.562Z,100675.41
2022-10-02T04:46:44.981Z,100671.25
2022-10-02T04:49:48.279Z,100672.16
2022-10-02T04:52:36.027Z,100672.19
2022-10-02T04:55:38.657Z,100680.84
2022-10-02T04:58:38.964Z,100684.25
2022-10-02T05:01:26.883Z,100692.03
2022-10-02T05:04:33.388Z,100683.47
2022-10-02T05:07:46.747Z,100705.03
2022-10-02T05:10:43.354Z,100702.44
2022-10-02T05:13:34.483Z,100703.31
2022-10-02T05:16:37.755Z,100698.94
2022-10-02T05:20:00.509Z,100703.28
2022-10-02T05:23:18.632Z,100706.72
2022-10-02T05:26:41.572Z,100701.59
2022-10-02T05:29:38.875Z,100700.72
2022-10-02T05:32:49.160Z,100711.19
2022-10-02T05:36:05.466Z,100717.19
2022-10-02T05:39:02.655Z,100718.88
2022-10-02T05:42:06.413Z,100718.94
2022-10-02T05:44:59.900Z,100723.28
2022-10-02T05:47:45.518Z,100728.50
2022-10-02T05:50:35.398Z,100724.22
2022-10-02T05:53:38.668Z,100734.56
2022-10-02T05:56:40.486Z,100736.41
2022-10-02T05:59:39.271Z,100735.53
2022-10-02T06:02:41.071Z,100727.72
2022-10-02T06:05:53.466Z,100724.31
2022-10-02T06:08:46.502Z,100719.97
2022-10-02T06:11:52.709Z,100724.38
2022-10-02T06:14:50.792Z,100736.50
2022-10-02T06:17:53.246Z,100744.31
2022-10-02T06:21:23.745Z,100734.81
2022-10-02T06:24:18.513Z,100729.59
2022-10-02T06:27:12.596Z,100740.88
2022-10-02T06:30:02.497Z,100746.06
2022-10-02T06:33:21.651Z,100748.72
2022-10-02T06:36:25.389Z,100748.78
2022-10-02T06:39:22.560Z,100754.00
2022-10-02T06:42:47.971Z,100767.97
2022-10-02T06:46:02.336Z,100778.34
2022-10-02T06:48:59.714Z,100768.81
2022-10-02T06:51:47.351Z,100771.53
2022-10-02T06:54:42.099Z,100774.97
2022-10-02T06:58:05.047Z,100769.84
2022-10-02T07:00:56.617Z,100768.13
2022-10-02T07:04:14.242Z,100772.50
2022-10-02T07:07:12.637Z,100775.16
2022-10-02T07:10:12.897Z,100775.19
2022-10-02T07:13:13.511Z,100764.81
2022-10-02T07:16:22.517Z,100783.03
2022-10-02T07:19:41.611Z,100783.06
2022-10-02T07:22:54.622Z,100779.66
2022-10-02T07:25:58.097Z,100784.91
2022-10-02T07:28:51.477Z,100780.66
2022-10-02T07:32:08.745Z,100778.91
2022-10-02T07:35:07.939Z,100785.00
2022-10-02T07:38:14.399Z,100785.97
2022-10-02T07:41:18.650Z,100799.81
2022-10-02T07:44:19.254Z,100791.19
2022-10-02T07:47:15.963Z,100803.34
2022-10-02T07:50:25.936Z,100796.41
2022-10-02T07:53:22.987Z,100807.66
2022-10-02T07:56:11.862Z,100814.69
2022-10-02T07:59:03.747Z,100817.19
2022-10-02T08:01:50.708Z,100821.47
2022-10-02T08:04:37.365Z,100822.44
2022-10-02T08:07:22.795Z,100829.44
2022-10-02T08:10:12.719Z,100826.84
2022-10-02T08:13:06.243Z,100825.06
2022-10-02T08:15:56.055Z,100824.31
2022-10-02T08:18:49.014Z,100828.63
2022-10-02T08:21:43.059Z,100825.19
2022-10-02T08:24:36.276Z,100826.97
2022-10-02T08:27:28.917Z,100822.63
2022-10-02T08:30:14.200Z,100818.31
2022-10-02T08:32:59.201Z,100817.50
2022-10-02T08:36:22.180Z,100812.31
2022-10-02T08:39:13.440Z,100826.13
2022-10-02T08:42:23.665Z,100820.94
2022-10-02T08:45:32.609Z,100816.63
2022-10-02T08:48:46.651Z,100812.41
2022-10-02T08:51:40.982Z,100821.16
2022-10-02T08:54:46.157Z,100823.72
2022-10-02T08:57:49.710Z,100827.31
2022-10-02T09:00:46.867Z,100829.06
2022-10-02T09:04:03.340Z,100817.78
2022-10-02T09:07:10.256Z,100823.03
2022-10-02T09:09:58.959Z,100818.63
2022-10-02T09:12:53.545Z,100829.09
2022-10-02T09:15:56.242Z,100823.06
2022-10-02T09:19:10.857Z,100827.38
2022-10-02T09:22:35.982Z,100825.69
2022-10-02T09:25:38.971Z,100824.72
2022-10-02T09:28:30.035Z,100828.25
2022-10-02T09:31:36.794Z,100823.09
2022-10-02T09:35:00.357Z,100828.31
2022-10-02T09:38:07.030Z,100825.69
2022-10-02T09:41:27.095Z,100827.44
2022-10-02T09:44:23.206Z,100831.78
2022-10-02T09:47:21.923Z,100823.13
2022-10-02T09:50:10.183Z,100823.97
2022-10-02T09:53:23.610Z,100826.59
2022-10-02T09:56:27.231Z,100819.63
2022-10-02T09:59:30.368Z,100832.66
2022-10-02T10:02:25.857Z,100832.69
2022-10-02T10:05:30.475Z,100823.97
2022-10-02T10:08:18.437Z,100817.03
2022-10-02T10:11:22.282Z,100823.97
2022-10-02T10:14:16.665Z,100816.19
2022-10-02T10:17:20.564Z,100809.22
2022-10-02T10:20:08.448Z,100814.44
2022-10-02T10:22:59.458Z,100815.31
2022-10-02T10:26:02.762Z,100812.66
2022-10-02T10:29:25.552Z,100823.13
2022-10-02T10:32:22.652Z,100827.50
2022-10-02T10:35:34.505Z,100825.72
2022-10-02T10:38:41.563Z,100828.34
2022-10-02T10:41:41.728Z,100830.06
2022-10-02T10:44:29.725Z,100799.66
2022-10-02T10:48:06.626Z,100807.47
2022-10-02T10:51:07.900Z,100813.53
2022-10-02T10:54:31.003Z,100774.44
2022-10-02T10:57:24.374Z,100767.47
2022-10-02T11:00:09.389Z,100783.13
2022-10-02T11:03:12.424Z,100779.63
2022-10-02T11:06:09.655Z,100798.75
2022-10-02T11:09:33.366Z,100788.31
2022-10-02T11:12:27.589Z,100797.88
2022-10-02T11:15:27.085Z,100761.41
2022-10-02T11:18:24.770Z,100776.06
2022-10-02T11:21:38.601Z,100775.22
2022-10-02T11:24:37.772Z,100786.44
2022-10-02T11:27:53.470Z,100782.88
2022-10-02T11:31:00.095Z,100759.31
2022-10-02T11:34:22.942Z,100772.56
2022-10-02T11:37:21.525Z,100802.91
2022-10-02T11:40:37.454Z,100777.56
2022-10-02T11:44:13.562Z,100769.66
2022-10-02T11:47:17.203Z,100777.59
2022-10-02T11:50:32.640Z,100782.84
2022-10-02T11:53:21.046Z,100784.63
2022-10-02T11:56:13.595Z,100800.22
2022-10-02T11:59:28.412Z,100755.03
2022-10-02T12:02:35.409Z,100771.56
2022-10-02T12:06:06.405Z,100762.88
2022-10-02T12:09:10.157Z,100769.97
2022-10-02T12:12:13.974Z,100776.97
2022-10-02T12:15:04.559Z,100827.41
2022-10-02T12:17:54.368Z,100832.53
2022-10-02T12:20:59.545Z,100809.06
2022-10-02T12:23:55.457Z,100815.06
2022-10-02T12:26:40.420Z,100818.50
2022-10-02T12:29:37.233Z,100829.69
2022-10-02T12:32:53.450Z,100845.34
2022-10-02T12:35:59.211Z,100787.13
2022-10-02T12:39:16.739Z,100820.31
2022-10-02T12:42:16.295Z,100898.72
2022-10-02T12:45:19.307Z,100938.72
2022-10-02T12:48:14.125Z,100936.09
2022-10-02T12:51:37.851Z,100921.34
2022-10-02T12:54:23.028Z,100887.38
2022-10-02T12:57:17.102Z,100885.38
2022-10-02T13:00:53.527Z,100889.72
2022-10-02T13:04:27.144Z,100842.84
2022-10-02T13:07:16.991Z,100822.13
2022-10-02T13:10:23.842Z,100784.97
2022-10-02T13:13:46.015Z,100794.50
2022-10-02T13:16:31.217Z,100680.44
2022-10-02T13:19:39.829Z,100739.13
2022-10-02T13:23:00.393Z,100696.97
2022-10-02T13:25:48.399Z,100739.13
2022-10-02T13:29:07.695Z,100711.56
2022-10-02T13:31:56.400Z,100660.59
2022-10-02T13:34:56.138Z,100757.19
2022-10-02T13:38:06.052Z,100697.97
2022-10-02T13:41:12.167Z,100779.03
2022-10-02T13:44:20.816Z,100736.38
2022-10-02T13:47:06.040Z,100771.06
2022-10-02T13:50:25.538Z,100773.56
2022-10-02T13:53:16.444Z,100758.06
2022-10-02T13:56:15.336Z,100787.69
2022-10-02T13:59:31.464Z,100820.00
2022-10-02T14:02:47.295Z,100813.13
2022-10-02T14:05:35.694Z,100863.50
2022-10-02T14:08:54.165Z,100772.03
2022-10-02T14:12:07.495Z,100808.19
2022-10-02T14:15:14.344Z,100783.22
2022-10-02T14:18:26.854Z,100801.38
2022-10-02T14:21:37.205Z,100772.81
2022-10-02T14:24:37.711Z,100819.91
2022-10-02T14:27:50.672Z,100810.44
2022-10-02T14:30:50.997Z,100827.91
2022-10-02T14:34:01.541Z,100834.91
2022-10-02T14:37:00.258Z,100852.47
2022-10-02T14:39:45.417Z,100840.25
2022-10-02T14:42:52.727Z,100835.97
2022-10-02T14:46:04.534Z,100849.00
2022-10-02T14:49:14.410Z,100870.72
2022-10-02T14:52:22.038Z,100828.06
2022-10-02T14:55:15.368Z,100796.66
2022-10-02T14:58:06.388Z,100796.63
2022-10-02T15:01:08.945Z,100816.69
2022-10-02T15:04:13.032Z,100783.69
2022-10-02T15:07:12.166Z,100830.63
2022-10-02T15:10:14.417Z,100780.16
2022-10-02T15:13:14.018Z,100841.88
2022-10-02T15:16:20.154Z,100850.56
2022-10-02T15:19:20.071Z,100862.75
2022-10-02T15:22:21.689Z,100881.09
2022-10-02T15:25:32.971Z,100865.47
2022-10-02T15:28:37.346Z,100866.31
2022-10-02T15:31:36.567Z,100830.66
2022-10-02T15:34:33.426Z,100863.69
2022-10-02T15:37:33.423Z,100872.31
2022-10-02T15:40:33.811Z,100867.03
2022-10-02T15:44:00.121Z,100822.53
2022-10-02T15:46:56.692Z,100876.50
2022-10-02T15:50:06.727Z,100901.69
2022-10-02T15:53:08.876Z,100879.91
2022-10-02T15:56:13.888Z,100894.72
2022-10-02T15:59:30.646Z,100892.19
2022-10-02T16:02:34.747Z,100892.38
2022-10-02T16:05:29.068Z,100864.59
2022-10-02T16:08:32.754Z,100895.91
2022-10-02T16:11:33.035Z,100914.09
2022-10-02T16:14:27.659Z,100945.53
2022-10-02T16:17:57.528Z,100953.47
2022-10-02T16:20:54.945Z,100965.72
2022-10-02T16:23:53.800Z,100977.88
2022-10-02T16:27:20.538Z,101003.09
2022-10-02T16:30:16.387Z,101021.34
2022-10-02T16:33:20.762Z,101057.81
2022-10-02T16:36:27.078Z,101067.38
2022-10-02T16:39:24.410Z,101019.56
2022-10-02T16:42:28.212Z,101043.00
2022-10-02T16:45:25.123Z,101030.84
2022-10-02T16:48:14.783Z,101062.97
2022-10-02T16:51:28.752Z,101067.22
2022-10-02T16:54:37.205Z,101091.50
2022-10-02T16:57:25.177Z,101078.41
2022-10-02T17:00:31.545Z,101084.47
2022-10-02T17:03:33.403Z,101115.69
2022-10-02T17:06:41.810Z,101103.44
2022-10-02T17:09:34.757Z,101112.06
2022-10-02T17:12:49.306Z,101119.00
2022-10-02T17:15:46.611Z,101120.75
2022-10-02T17:18:45.190Z,101114.56
2022-10-02T17:21:50.056Z,101113.66
2022-10-02T17:25:09.081Z,101142.22
2022-10-02T17:28:19.491Z,101155.16
2022-10-02T17:31:38.639Z,101156.81
2022-10-02T17:34:27.279Z,101174.03
2022-10-02T17:37:18.152Z,101187.84
2022-10-02T17:40:24.285Z,101190.53
2022-10-02T17:43:37.705Z,101187.78
2022-10-02T17:46:58.335Z,101202.47
2022-10-02T17:50:05.199Z,101220.59
2022-10-02T17:53:00.491Z,101224.69
2022-10-02T17:56:18.847Z,101230.84
2022-10-02T17:59:31.959Z,101236.78
2022-10-02T18:02:58.488Z,101236.03
2022-10-02T18:05:57.377Z,101241.19
2022-10-02T18:08:54.935Z,101250.47
2022-10-02T18:12:11.866Z,101254.78
2022-10-02T18:14:56.958Z,101264.28
2022-10-02T18:18:07.908Z,101275.03
2022-10-02T18:22:00.846Z,101280.28
2022-10-02T18:25:03.700Z,101286.25
2022-10-02T18:28:15.516Z,101291.41
2022-10-02T18:31:44.343Z,101289.53
2022-10-02T18:34:54.240Z,101290.25
2022-10-02T18:37:49.885Z,101292.91
2022-10-02T18:40:51.972Z,101302.44
2022-10-02T18:43:55.961Z,101290.34
2022-10-02T18:46:53.250Z,101295.44
2022-10-02T18:50:14.436Z,101329.78
2022-10-02T18:53:08.706Z,101325.41
2022-10-02T18:56:12.809Z,101333.91
2022-10-02T18:59:29.564Z,101328.75
2022-10-02T19:02:38.314Z,101343.94
2022-10-02T19:05:56.030Z,101339.69
2022-10-02T19:08:59.969Z,101348.81
2022-10-02T19:11:53.404Z,101358.44
2022-10-02T19:14:41.005Z,101358.25
2022-10-02T19:17:28.489Z,101348.88
2022-10-02T19:20:50.811Z,101356.59
2022-10-02T19:23:41.702Z,101360.09
2022-10-02T19:26:34.158Z,101362.53
2022-10-02T19:29:19.710Z,101367.59
2022-10-02T19:32:10.593Z,101374.50
2022-10-02T19:35:19.797Z,101389.59
2022-10-02T19:38:22.241Z,101393.84
2022-10-02T19:41:18.029Z,101396.94
2022-10-02T19:44:07.865Z,101401.25
2022-10-02T19:46:55.966Z,101413.94
2022-10-02T19:49:41.644Z,101416.22
2022-10-02T19:52:54.204Z,101432.69
2022-10-02T19:55:42.263Z,101420.97
2022-10-02T19:58:33.527Z,101426.88
2022-10-02T20:01:26.433Z,101429.03
2022-10-02T20:04:18.403Z,101427.44
2022-10-02T20:07:04.577Z,101416.56
2022-10-02T20:10:03.344Z,101430.94
2022-10-02T20:12:58.019Z,101436.78
2022-10-02T20:15:43.572Z,101437.50
2022-10-02T20:18:28.858Z,101437.50
2022-10-02T20:21:37.660Z,101435.19
2022-10-02T20:24:41.638Z,101438.84
2022-10-02T20:27:51.090Z,101444.97
2022-10-02T20:30:45.518Z,101446.13
2022-10-02T20:33:52.240Z,101440.88
2022-10-02T20:36:51.226Z,101451.59
2022-10-02T20:39:44.535Z,101445.56
2022-10-02T20:42:38.998Z,101456.50
2022-10-02T20:45:34.561Z,101458.00
2022-10-02T20:49:07.997Z,101461.78
2022-10-02T20:52:33.181Z,101470.41
2022-10-02T20:55:26.370Z,101487.47
2022-10-02T20:58:20.392Z,101485.97
2022-10-02T21:01:18.355Z,101496.22
2022-10-02T21:04:40.993Z,101496.94
2022-10-02T21:07:44.604Z,101500.97
2022-10-02T21:10:59.355Z,101504.88
2022-10-02T21:13:56.381Z,101505.09
2022-10-02T21:17:25.814Z,101511.41
2022-10-02T21:20:50.377Z,101511.25
2022-10-02T21:23:48.866Z,101515.84
2022-10-02T21:27:05.380Z,101516.94
2022-10-02T21:29:58.122Z,101521.22
2022-10-02T21:32:55.820Z,101525.44
2022-10-02T21:35:49.140Z,101526.72
2022-10-02T21:39:11.970Z,101531.81
2022-10-02T21:42:25.137Z,101537.41
2022-10-02T21:45:10.194Z,101531.69
2022-10-02T21:48:16.594Z,101541.31
2022-10-02T21:51:20.562Z,101543.22
2022-10-02T21:54:11.565Z,101530.28
2022-10-02T21:57:10.844Z,101542.91
2022-10-02T22:00:23.208Z,101549.06
2022-10-02T22:03:20.572Z,101552.06
2022-10-02T22:06:29.377Z,101554.53
2022-10-02T22:09:48.425Z,101563.81
2022-10-02T22:12:48.817Z,101562.25
2022-10-02T22:16:00.592Z,101572.31
2022-10-02T22:18:53.415Z,101572.31
2022-10-02T22:21:47.819Z,101577.38
2022-10-02T22:24:42.158Z,101574.78
2022-10-02T22:27:30.147Z,101578.91
2022-10-02T22:30:23.484Z,101578.72
2022-10-02T22:33:23.930Z,101584.69
2022-10-02T22:36:40.298Z,101581.81
2022-10-02T22:39:25.128Z,101588.81
2022-10-02T22:42:25.440Z,101592.31
2022-10-02T22:45:21.591Z,101584.66
2022-10-02T22:48:10.798Z,101598.59
2022-10-02T22:51:04.037Z,101606.69
2022-10-02T22:53:58.485Z,101607.47
2022-10-02T22:57:01.997Z,101615.00
2022-10-02T22:59:57.972Z,101623.22
2022-10-02T23:02:52.611Z,101622.69
2022-10-02T23:05:44.658Z,101615.88
2022-10-02T23:08:52.004Z,101620.09
2022-10-02T23:11:43.079Z,101612.47
2022-10-02T23:14:47.878Z,101612.56
2022-10-02T23:17:44.355Z,101607.06
2022-10-02T23:20:36.739Z,101612.94
2022-10-02T23:23:31.758Z,101613.34
2022-10-02T23:26:16.738Z,101608.53
2022-10-02T23:29:11.241Z,101617.13
2022-10-02T23:32:17.390Z,101618.97
2022-10-02T23:35:23.908Z,101626.53
2022-10-02T23:38:20.974Z,101627.88
2022-10-02T23:41:24.221Z,101630.19
2022-10-02T23:44:28.896Z,101631.63
2022-10-02T23:47:20.964Z,101641.66
2022-10-02T23:50:21.598Z,101637.28
2022-10-02T23:53:31.449Z,101638.50
2022-10-02T23:56:38.716Z,101639.44
2022-10-02T23:59:35.279Z,101636.84
